Time;durP1;ratioP1;P1;durP2;ratioP2;P2;SDS_P1;SDS_P2;PMS_P1;PMS_P2;Temp;Humidity;BMP_temperature;BMP_pressure;BME280_temperature;BME280_humidity;BME280_pressure;Samples;Min_cycle;Max_cycle;Signal;HPM_P1;HPM_P2
2022/01/09 00:02:21;;;;;;;74.68;8.10;;;;;;;6.08;93.95;98920.97;5033097;28;20025;-43
2022/01/09 00:04:46;;;;;;;76.43;6.90;;;;;;;6.09;93.05;98918.13;5033203;28;20029;-42
2022/01/09 00:07:11;;;;;;;73.05;8.32;;;;;;;6.13;92.23;98929.22;5033302;28;20029;-42
2022/01/09 00:09:38;;;;;;;65.65;7.10;;;;;;;6.12;92.71;98933.75;5032935;28;20053;-42
2022/01/09 00:12:03;;;;;;;72.53;6.72;;;;;;;6.14;93.12;98945.06;5033181;28;20025;-43
2022/01/09 00:14:29;;;;;;;75.35;6.72;;;;;;;6.14;92.11;98947.72;5032974;28;20030;-42
2022/01/09 00:16:54;;;;;;;75.35;7.07;;;;;;;6.16;92.96;98960.88;5031413;28;20059;-42
2022/01/09 00:19:19;;;;;;;75.50;6.25;;;;;;;6.16;93.00;98958.19;5031756;28;20068;-42
2022/01/09 00:21:44;;;;;;;59.63;6.95;;;;;;;6.17;91.66;98972.41;5033214;28;20474;-43
2022/01/09 00:24:10;;;;;;;62.17;7.10;;;;;;;6.15;92.35;98956.56;5031979;28;20040;-42
2022/01/09 00:26:35;;;;;;;82.63;9.38;;;;;;;6.14;91.97;98981.63;5031849;28;20034;-42
2022/01/09 00:29:01;;;;;;;62.42;6.05;;;;;;;6.17;90.80;98977.75;5022623;28;20415;-42
2022/01/09 00:31:26;;;;;;;68.88;5.93;;;;;;;6.21;89.83;98979.78;5013099;28;20127;-43
2022/01/09 00:33:51;;;;;;;52.95;7.90;;;;;;;6.24;88.50;98994.59;5016931;28;20025;-42
2022/01/09 00:36:17;;;;;;;63.55;6.95;;;;;;;6.24;88.77;99007.97;5032873;28;20444;-43
2022/01/09 00:38:42;;;;;;;60.58;5.80;;;;;;;6.22;88.99;98999.34;5032650;28;20532;-42
2022/01/09 00:41:07;;;;;;;52.72;6.55;;;;;;;6.22;90.33;98994.81;5032301;28;20369;-43
2022/01/09 00:43:33;;;;;;;67.00;7.40;;;;;;;6.19;90.71;99019.25;5032794;28;20031;-42
2022/01/09 00:45:58;;;;;;;55.28;6.40;;;;;;;6.21;91.13;99013.69;5032638;28;20048;-42
2022/01/09 00:48:24;;;;;;;62.78;6.78;;;;;;;6.19;90.78;99015.75;5032330;28;20385;-43
2022/01/09 00:50:50;;;;;;;60.67;6.82;;;;;;;6.17;90.06;99029.31;5032202;28;20682;-42
2022/01/09 00:53:16;;;;;;;64.63;7.63;;;;;;;6.17;90.02;99031.97;5032402;28;20029;-42
2022/01/09 00:55:41;;;;;;;71.72;6.78;;;;;;;6.15;88.60;99023.34;5032638;28;20449;-42
2022/01/09 00:58:06;;;;;;;57.97;4.95;;;;;;;6.19;87.63;99024.59;5032242;28;20018;-42
2022/01/09 01:00:35;;;;;;;47.60;5.00;;;;;;;6.18;87.70;99016.78;5031182;28;20116;-41
2022/01/09 01:03:00;;;;;;;50.92;5.43;;;;;;;6.13;87.97;99036.91;5031507;28;20025;-42
2022/01/09 01:05:26;;;;;;;50.47;6.20;;;;;;;6.08;88.04;99038.50;5033395;28;20519;-42
2022/01/09 01:07:51;;;;;;;58.25;6.47;;;;;;;6.09;87.21;99043.66;5042164;28;20108;-42
2022/01/09 01:10:16;;;;;;;45.17;5.38;;;;;;;6.04;87.64;99048.75;5032212;28;20501;-43
2022/01/09 01:12:42;;;;;;;45.67;6.28;;;;;;;6.08;85.94;99051.84;5030870;28;20029;-42
2022/01/09 01:15:08;;;;;;;44.25;5.68;;;;;;;6.07;87.87;99060.88;5032255;28;20021;-43
2022/01/09 01:17:35;;;;;;;54.28;5.78;;;;;;;6.06;87.39;99072.59;5030777;28;20401;-42
2022/01/09 01:20:00;;;;;;;45.93;4.73;;;;;;;6.08;88.19;99081.22;5032607;28;20477;-42
2022/01/09 01:22:27;;;;;;;58.97;5.53;;;;;;;6.08;87.85;99068.72;5032170;28;20287;-42
2022/01/09 01:24:53;;;;;;;61.67;6.07;;;;;;;6.08;88.87;99083.91;5032364;28;20121;-42
2022/01/09 01:27:18;;;;;;;58.90;5.50;;;;;;;6.11;87.17;99095.03;5014608;28;20112;-42
2022/01/09 01:29:44;;;;;;;43.92;4.38;;;;;;;6.15;87.72;99098.94;5032189;28;20072;-42
2022/01/09 01:32:09;;;;;;;66.15;6.13;;;;;;;6.10;88.21;99080.00;5030663;28;20025;-42
2022/01/09 01:34:34;;;;;;;48.33;5.13;;;;;;;6.03;88.79;99100.53;5030934;28;20033;-42
2022/01/09 01:37:00;;;;;;;54.72;5.57;;;;;;;6.07;87.32;99112.44;5032026;28;20026;-42
2022/01/09 01:39:25;;;;;;;61.35;6.28;;;;;;;5.98;88.89;99113.63;5030796;28;20030;-42
2022/01/09 01:41:50;;;;;;;43.97;4.85;;;;;;;6.00;87.07;99129.44;5031957;28;20030;-43
2022/01/09 01:44:16;;;;;;;50.38;5.95;;;;;;;5.96;88.32;99134.38;5032067;28;20064;-42
2022/01/09 01:46:41;;;;;;;61.70;5.63;;;;;;;5.93;87.07;99142.72;5032113;28;20500;-43
2022/01/09 01:49:10;;;;;;;56.42;5.78;;;;;;;5.96;87.00;99157.56;5031526;28;20041;-42
2022/01/09 01:51:43;;;;;;;52.10;4.32;;;;;;;5.94;86.63;99150.56;5033092;28;20029;-43
2022/01/09 01:54:13;;;;;;;45.65;5.45;;;;;;;6.01;85.84;99144.47;5035908;28;20040;-43
2022/01/09 01:56:38;;;;;;;47.60;5.28;;;;;;;6.03;86.07;99153.09;5035581;28;20030;-42
2022/01/09 01:59:04;;;;;;;42.67;4.65;;;;;;;5.98;86.45;99144.84;5035724;28;20082;-43
2022/01/09 02:01:30;;;;;;;46.42;4.57;;;;;;;6.00;84.89;99172.16;5035827;28;20505;-42
2022/01/09 02:03:55;;;;;;;51.65;5.78;;;;;;;5.96;85.75;99171.75;5035866;28;20025;-42
2022/01/09 02:06:21;;;;;;;42.85;4.45;;;;;;;5.99;84.66;99175.88;5035453;28;20511;-42
2022/01/09 02:08:47;;;;;;;35.20;4.57;;;;;;;6.02;85.30;99183.50;5035201;28;20173;-43
2022/01/09 02:11:12;;;;;;;41.92;4.28;;;;;;;6.03;84.70;99187.81;5035509;28;20071;-42
2022/01/09 02:13:43;;;;;;;43.80;5.18;;;;;;;6.05;85.55;99193.78;5035448;28;20482;-42
2022/01/09 02:16:16;;;;;;;47.78;4.07;;;;;;;6.04;84.77;99194.81;5033461;28;20356;-43
2022/01/09 02:18:42;;;;;;;37.88;3.83;;;;;;;5.98;85.29;99190.22;5035320;28;20469;-42
2022/01/09 02:21:10;;;;;;;36.58;3.67;;;;;;;5.96;85.09;99206.47;5035352;28;20163;-42
2022/01/09 02:23:45;;;;;;;44.58;4.07;;;;;;;5.98;84.79;99199.09;5034711;28;20037;-41
2022/01/09 02:26:11;;;;;;;37.17;3.75;;;;;;;5.99;82.87;99207.91;5035473;28;20396;-42
2022/01/09 02:28:36;;;;;;;45.53;5.63;;;;;;;6.06;82.73;99211.47;5034271;28;20362;-42
2022/01/09 02:31:02;;;;;;;36.28;3.95;;;;;;;6.02;84.65;99218.22;5035061;28;20088;-42
2022/01/09 02:33:27;;;;;;;41.20;4.25;;;;;;;5.97;84.95;99225.97;5035026;28;20525;-42
2022/01/09 02:35:53;;;;;;;49.80;4.97;;;;;;;5.98;86.08;99232.94;5035140;28;20080;-42
2022/01/09 02:38:19;;;;;;;39.40;3.78;;;;;;;5.96;85.65;99237.69;5035158;28;20033;-43
2022/01/09 02:40:52;;;;;;;35.80;4.10;;;;;;;5.89;85.08;99238.41;5034893;28;20041;-42
2022/01/09 02:43:17;;;;;;;26.35;3.67;;;;;;;5.87;84.14;99251.13;5034766;28;20033;-42
2022/01/09 02:45:46;;;;;;;29.20;3.30;;;;;;;5.79;84.85;99248.56;5035232;28;20035;-42
2022/01/09 02:48:11;;;;;;;37.63;3.97;;;;;;;5.76;83.34;99250.78;5034985;28;20021;-42
2022/01/09 02:50:42;;;;;;;37.03;2.97;;;;;;;5.69;82.75;99253.41;5034814;28;20029;-42
2022/01/09 02:53:15;;;;;;;37.85;3.55;;;;;;;5.70;83.30;99265.72;5034908;28;20441;-42
2022/01/09 02:55:41;;;;;;;40.80;4.32;;;;;;;5.64;84.78;99280.66;5034979;28;20507;-43
2022/01/09 02:58:07;;;;;;;34.15;3.90;;;;;;;5.63;86.01;99286.19;5035350;28;20339;-43
2022/01/09 03:00:38;;;;;;;37.67;4.35;;;;;;;5.61;85.99;99296.19;5033241;28;20025;-42
2022/01/09 03:03:04;;;;;;;36.67;4.68;;;;;;;5.56;85.77;99302.13;5033146;28;20026;-42
2022/01/09 03:05:29;;;;;;;33.45;4.47;;;;;;;5.56;84.62;99301.31;5033193;28;20157;-42
2022/01/09 03:07:55;;;;;;;40.45;3.85;;;;;;;5.58;83.66;99308.09;5034325;28;20026;-42
2022/01/09 03:10:22;;;;;;;28.63;3.85;;;;;;;5.61;82.44;99304.22;5033768;28;20053;-42
2022/01/09 03:12:49;;;;;;;31.30;2.80;;;;;;;5.60;82.92;99307.91;5034112;28;20034;-42
2022/01/09 03:15:16;;;;;;;37.70;3.65;;;;;;;5.63;81.35;99323.53;5033825;28;20125;-42
2022/01/09 03:17:41;;;;;;;20.98;2.95;;;;;;;5.67;80.42;99330.16;5034138;28;20026;-42
2022/01/09 03:20:10;;;;;;;25.13;2.90;;;;;;;5.65;81.60;99326.84;5033922;28;20052;-42
2022/01/09 03:22:35;;;;;;;30.05;3.15;;;;;;;5.59;81.41;99335.63;5032673;28;20033;-43
2022/01/09 03:25:01;;;;;;;36.05;3.35;;;;;;;5.55;82.04;99343.16;5033910;28;20087;-42
2022/01/09 03:27:26;;;;;;;21.25;3.10;;;;;;;5.57;81.41;99349.13;5033956;28;20040;-42
2022/01/09 03:29:52;;;;;;;22.50;3.22;;;;;;;5.59;82.86;99340.97;5033579;28;20068;-42
2022/01/09 03:32:17;;;;;;;29.00;2.90;;;;;;;5.63;82.58;99355.56;5033821;28;20045;-42
2022/01/09 03:34:42;;;;;;;24.42;3.33;;;;;;;5.61;82.64;99355.78;5033562;28;20056;-41
2022/01/09 03:37:08;;;;;;;39.78;4.07;;;;;;;5.57;83.45;99367.00;5033839;28;20109;-42
2022/01/09 03:39:33;;;;;;;30.05;3.03;;;;;;;5.55;82.62;99377.03;5033308;28;20383;-42
2022/01/09 03:41:59;;;;;;;40.20;3.50;;;;;;;5.54;83.91;99375.38;5033651;28;20052;-43
2022/01/09 03:44:26;;;;;;;34.60;3.42;;;;;;;5.52;82.37;99378.22;5032513;28;20033;-43
2022/01/09 03:46:51;;;;;;;28.15;3.15;;;;;;;5.58;81.24;99373.97;5033474;28;20056;-43
2022/01/09 03:49:17;;;;;;;24.35;2.63;;;;;;;5.56;82.01;99384.03;5032620;28;20125;-42
2022/01/09 03:51:44;;;;;;;22.80;3.35;;;;;;;5.52;82.02;99383.56;5030825;28;20037;-42
2022/01/09 03:54:10;;;;;;;28.13;3.70;;;;;;;5.46;82.49;99392.31;5033631;28;20033;-42
2022/01/09 03:56:35;;;;;;;24.95;3.78;;;;;;;5.40;82.05;99383.22;5033246;28;20037;-43
2022/01/09 03:59:01;;;;;;;25.67;4.30;;;;;;;5.41;81.37;99381.34;5031999;28;20029;-42
2022/01/09 04:01:26;;;;;;;35.17;4.68;;;;;;;5.40;81.86;99388.53;5033261;28;20308;-42
2022/01/09 04:03:52;;;;;;;21.77;2.88;;;;;;;5.36;82.13;99383.75;5033135;28;20449;-42
2022/01/09 04:06:18;;;;;;;31.05;3.08;;;;;;;5.34;81.77;99388.44;5032953;28;20037;-43
2022/01/09 04:08:43;;;;;;;18.55;2.80;;;;;;;5.32;82.08;99401.97;5032863;28;20053;-42
2022/01/09 04:11:09;;;;;;;40.75;3.03;;;;;;;5.32;82.39;99403.78;5037312;28;20493;-42
2022/01/09 04:13:36;;;;;;;23.02;3.58;;;;;;;5.31;82.94;99412.81;5028137;28;20474;-42
2022/01/09 04:16:02;;;;;;;31.00;4.07;;;;;;;5.27;82.07;99413.19;5015418;28;20026;-42
2022/01/09 04:18:28;;;;;;;19.58;2.53;;;;;;;5.26;81.99;99414.19;5032845;28;20108;-42
2022/01/09 04:20:54;;;;;;;27.27;3.53;;;;;;;5.26;82.32;99413.34;5032662;28;20121;-42
2022/01/09 04:23:19;;;;;;;20.40;2.50;;;;;;;5.24;80.85;99416.22;5032816;28;20057;-42
2022/01/09 04:25:46;;;;;;;28.63;2.92;;;;;;;5.21;81.80;99426.41;5032692;28;20021;-42
2022/01/09 04:28:13;;;;;;;19.95;2.20;;;;;;;5.21;81.06;99421.94;5032699;28;20036;-42
2022/01/09 04:30:38;;;;;;;21.45;3.25;;;;;;;5.14;81.70;99431.66;5032779;28;20064;-43
2022/01/09 04:33:04;;;;;;;21.95;3.42;;;;;;;5.14;82.20;99436.16;5032156;28;20037;-42
2022/01/09 04:35:29;;;;;;;27.80;3.08;;;;;;;5.10;82.18;99442.84;5031429;28;20032;-43
2022/01/09 04:37:55;;;;;;;20.10;3.35;;;;;;;5.11;83.14;99441.84;5031320;28;20116;-42
2022/01/09 04:40:21;;;;;;;23.08;3.22;;;;;;;5.14;82.80;99461.00;5032630;28;20052;-42
2022/01/09 04:42:55;;;;;;;30.20;3.47;;;;;;;5.19;83.07;99463.94;5032434;28;20022;-42
2022/01/09 04:45:21;;;;;;;26.33;2.60;;;;;;;5.25;82.47;99449.06;5031401;28;20036;-42
2022/01/09 04:47:49;;;;;;;25.85;2.67;;;;;;;5.28;82.62;99464.69;5032578;28;20030;-43
2022/01/09 04:50:20;;;;;;;24.35;2.83;;;;;;;5.27;82.16;99477.22;5032151;28;20068;-42
2022/01/09 04:52:46;;;;;;;16.10;2.58;;;;;;;5.33;81.91;99478.31;5032265;28;20022;-43
2022/01/09 04:55:11;;;;;;;32.72;3.28;;;;;;;5.34;81.07;99482.63;5032317;28;20141;-44
2022/01/09 04:57:37;;;;;;;23.83;2.58;;;;;;;5.39;81.17;99493.59;5032276;28;20029;-42
2022/01/09 05:00:07;;;;;;;24.83;3.10;;;;;;;5.38;81.18;99497.28;5031257;28;20072;-42
2022/01/09 05:02:33;;;;;;;26.65;2.97;;;;;;;5.36;80.66;99488.63;5032282;28;20099;-42
2022/01/09 05:04:58;;;;;;;18.10;2.67;;;;;;;5.41;80.75;99496.91;5030843;28;20022;-42
2022/01/09 05:07:23;;;;;;;29.02;3.08;;;;;;;5.40;80.88;99495.25;5031004;28;20033;-42
2022/01/09 05:09:49;;;;;;;30.58;3.60;;;;;;;5.41;80.99;99512.09;5030750;28;20088;-42
2022/01/09 05:12:14;;;;;;;18.63;2.20;;;;;;;5.40;80.30;99510.44;5032327;28;20025;-42
2022/01/09 05:14:39;;;;;;;24.38;2.55;;;;;;;5.42;80.76;99511.06;5032150;28;20382;-42
2022/01/09 05:17:05;;;;;;;18.95;2.78;;;;;;;5.37;81.73;99511.63;5031955;28;20053;-43
2022/01/09 05:19:33;;;;;;;25.33;2.30;;;;;;;5.41;80.70;99509.44;5032327;28;20034;-42
2022/01/09 05:21:59;;;;;;;33.42;3.78;;;;;;;5.39;81.60;99520.28;5014653;28;20026;-42
2022/01/09 05:24:25;;;;;;;33.75;3.45;;;;;;;5.41;81.65;99522.75;5032004;28;20044;-43
2022/01/09 05:26:50;;;;;;;25.70;3.28;;;;;;;5.39;82.05;99536.28;5034864;28;20473;-42
2022/01/09 05:29:15;;;;;;;24.38;2.75;;;;;;;5.42;80.93;99535.91;5036099;28;20038;-42
2022/01/09 05:31:41;;;;;;;20.15;3.25;;;;;;;5.40;81.06;99537.94;5035408;28;20066;-42
2022/01/09 05:34:06;;;;;;;24.80;3.20;;;;;;;5.39;81.07;99530.13;5033813;28;20155;-43
2022/01/09 05:36:32;;;;;;;29.20;2.70;;;;;;;5.39;80.63;99541.59;5034257;28;20029;-42
2022/01/09 05:38:58;;;;;;;23.42;3.00;;;;;;;5.42;80.54;99535.91;5035812;28;20111;-42
2022/01/09 05:41:23;;;;;;;18.80;2.72;;;;;;;5.40;80.86;99539.78;5035224;28;20374;-44
2022/01/09 05:43:48;;;;;;;25.65;3.05;;;;;;;5.37;82.05;99548.13;5035779;28;20481;-42
2022/01/09 05:46:14;;;;;;;29.98;2.70;;;;;;;5.37;81.87;99557.00;5035877;28;20053;-42
2022/01/09 05:48:39;;;;;;;26.40;2.80;;;;;;;5.35;81.31;99558.19;5034189;28;20040;-42
2022/01/09 05:51:05;;;;;;;23.30;2.78;;;;;;;5.28;81.03;99566.88;5035293;28;20018;-42
2022/01/09 05:53:30;;;;;;;12.00;3.20;;;;;;;5.30;80.44;99563.22;5036048;28;20477;-43
2022/01/09 05:55:55;;;;;;;22.27;2.95;;;;;;;5.28;80.45;99571.41;5036498;28;20033;-42
2022/01/09 05:58:21;;;;;;;17.67;3.08;;;;;;;5.30;80.45;99574.72;5035730;28;20063;-42
2022/01/09 06:00:46;;;;;;;29.17;3.90;;;;;;;5.31;81.09;99581.69;5037878;28;20060;-43
2022/01/09 06:03:11;;;;;;;22.15;3.50;;;;;;;5.30;81.38;99582.72;5031333;28;20063;-42
2022/01/09 06:05:36;;;;;;;29.40;3.50;;;;;;;5.29;82.13;99583.72;5022896;28;20030;-41
2022/01/09 06:08:02;;;;;;;20.70;4.18;;;;;;;5.28;81.07;99592.72;5012748;28;20029;-42
2022/01/09 06:10:27;;;;;;;16.83;3.10;;;;;;;5.31;80.99;99594.22;5012276;28;20050;-42
2022/01/09 06:12:53;;;;;;;23.30;2.63;;;;;;;5.29;81.00;99591.72;5029801;28;20180;-43
2022/01/09 06:15:18;;;;;;;26.48;2.88;;;;;;;5.29;81.35;99589.03;5032540;28;20525;-42
2022/01/09 06:17:44;;;;;;;24.27;3.22;;;;;;;5.28;81.36;99587.41;5032036;28;20068;-42
2022/01/09 06:20:12;;;;;;;27.85;2.95;;;;;;;5.26;81.96;99592.06;5030628;28;20440;-42
2022/01/09 06:22:38;;;;;;;18.95;4.05;;;;;;;5.22;80.53;99598.78;5032535;28;20029;-41
2022/01/09 06:25:04;;;;;;;30.50;3.13;;;;;;;5.22;80.35;99590.78;5031981;28;20036;-42
2022/01/09 06:27:30;;;;;;;22.23;2.67;;;;;;;5.22;80.17;99612.13;5031899;28;20075;-41
2022/01/09 06:29:55;;;;;;;24.10;3.03;;;;;;;5.14;80.82;99618.34;5030676;28;20054;-41
2022/01/09 06:32:21;;;;;;;26.20;2.97;;;;;;;5.17;79.15;99617.16;5031961;28;20034;-42
2022/01/09 06:34:46;;;;;;;22.75;3.22;;;;;;;5.16;79.89;99618.16;5031699;28;20036;-42
2022/01/09 06:37:12;;;;;;;16.90;3.35;;;;;;;5.14;80.04;99634.34;5031149;28;20485;-42
2022/01/09 06:39:38;;;;;;;22.00;3.00;;;;;;;5.17;80.05;99627.84;5031843;28;20021;-41
2022/01/09 06:42:04;;;;;;;21.83;3.08;;;;;;;5.22;80.32;99633.47;5031361;28;20030;-41
2022/01/09 06:44:29;;;;;;;26.58;2.72;;;;;;;5.23;81.13;99632.44;5031756;28;20404;-41
2022/01/09 06:46:55;;;;;;;25.48;2.92;;;;;;;5.26;80.53;99640.09;5031857;28;20076;-42
2022/01/09 06:49:20;;;;;;;27.25;3.22;;;;;;;5.26;81.22;99637.44;5031679;28;20033;-41
2022/01/09 06:51:45;;;;;;;22.25;3.40;;;;;;;5.26;81.18;99642.75;5031161;28;20087;-42
2022/01/09 06:54:13;;;;;;;17.98;2.47;;;;;;;5.27;80.44;99644.44;5030277;28;20033;-42
2022/01/09 06:56:38;;;;;;;19.90;2.70;;;;;;;5.30;79.84;99659.25;5029896;28;20489;-41
2022/01/09 06:59:03;;;;;;;20.48;2.58;;;;;;;5.31;78.97;99669.75;5036227;28;20114;-42
2022/01/09 07:01:29;;;;;;;25.92;3.15;;;;;;;5.30;78.26;99660.09;5051635;28;20028;-41
2022/01/09 07:03:54;;;;;;;21.65;3.10;;;;;;;5.31;79.47;99666.25;5043839;28;20393;-42
2022/01/09 07:06:19;;;;;;;20.75;2.63;;;;;;;5.31;79.44;99667.06;5031251;28;20092;-42
2022/01/09 07:08:45;;;;;;;17.13;2.45;;;;;;;5.29;80.05;99663.75;5031313;28;20068;-41
2022/01/09 07:11:10;;;;;;;21.48;3.40;;;;;;;5.27;80.14;99671.94;5032808;28;20465;-44
2022/01/09 07:13:35;;;;;;;26.42;3.50;;;;;;;5.29;81.05;99674.41;5031160;28;20029;-41
2022/01/09 07:16:01;;;;;;;25.50;2.65;;;;;;;5.32;81.37;99683.91;5029920;28;20025;-43
2022/01/09 07:18:26;;;;;;;32.97;2.75;;;;;;;5.30;81.41;99684.09;5029319;28;20037;-41
2022/01/09 07:20:52;;;;;;;23.30;2.63;;;;;;;5.30;81.92;99681.44;5031350;28;20492;-41
2022/01/09 07:23:17;;;;;;;27.08;3.33;;;;;;;5.34;81.97;99693.38;5030352;28;20116;-42
2022/01/09 07:25:43;;;;;;;26.65;3.58;;;;;;;5.36;83.04;99701.22;5019969;28;20061;-42
2022/01/09 07:28:08;;;;;;;24.77;3.55;;;;;;;5.32;82.56;99692.75;5031176;28;20068;-43
2022/01/09 07:30:34;;;;;;;16.65;2.58;;;;;;;5.23;83.79;99697.28;5030418;28;20057;-44
2022/01/09 07:32:59;;;;;;;36.65;3.67;;;;;;;5.20;84.38;99702.16;5029179;28;20457;-42
2022/01/09 07:35:25;;;;;;;24.52;4.35;;;;;;;5.21;83.69;99707.34;5029348;28;20052;-42
2022/01/09 07:37:51;;;;;;;24.17;3.47;;;;;;;5.20;82.63;99702.16;5030836;28;20084;-42
2022/01/09 07:40:17;;;;;;;16.92;2.80;;;;;;;5.19;83.50;99719.19;5030382;28;20440;-42
2022/01/09 07:42:42;;;;;;;38.50;3.80;;;;;;;5.22;83.89;99724.16;5030758;28;20035;-43
2022/01/09 07:45:08;;;;;;;33.25;4.00;;;;;;;5.23;84.14;99717.81;5031022;28;20526;-43
2022/01/09 07:47:37;;;;;;;28.50;3.50;;;;;;;5.19;84.71;99711.19;5029841;28;20113;-41
2022/01/09 07:50:05;;;;;;;;;;;;;;;5.21;85.15;99722.47;5028054;28;20033;-42
2022/01/09 07:52:34;;;;;;;35.80;4.43;;;;;;;5.23;84.27;99725.81;5030609;28;19913;-42
2022/01/09 07:54:59;;;;;;;21.63;2.95;;;;;;;5.23;83.19;99717.81;5030384;28;20030;-42
2022/01/09 07:57:25;;;;;;;25.05;3.20;;;;;;;5.27;82.86;99719.13;5029668;28;20053;-43
2022/01/09 07:59:50;;;;;;;30.50;3.75;;;;;;;5.25;82.96;99732.63;5030636;28;20033;-42
2022/01/09 08:02:15;;;;;;;30.20;2.90;;;;;;;5.27;82.66;99745.81;5030458;28;20482;-44
2022/01/09 08:04:41;;;;;;;31.40;4.95;;;;;;;5.30;82.45;99744.63;5030198;28;20026;-43
2022/01/09 08:07:06;;;;;;;40.95;4.93;;;;;;;5.31;82.61;99752.44;5030447;28;20029;-42
2022/01/09 08:09:31;;;;;;;35.25;3.58;;;;;;;5.34;82.88;99752.09;5028885;28;20046;-42
2022/01/09 08:11:57;;;;;;;25.00;3.40;;;;;;;5.36;82.18;99766.09;5030460;28;20398;-42
2022/01/09 08:14:22;;;;;;;26.02;3.25;;;;;;;5.37;82.80;99767.78;5030467;28;20040;-41
2022/01/09 08:16:47;;;;;;;28.50;3.88;;;;;;;5.37;82.26;99762.44;5030156;28;20029;-42
2022/01/09 08:19:13;;;;;;;27.52;3.22;;;;;;;5.42;81.25;99765.38;5029959;28;20536;-43
2022/01/09 08:21:38;;;;;;;28.83;3.30;;;;;;;5.45;80.80;99774.88;5029887;28;20392;-43
2022/01/09 08:24:04;;;;;;;25.92;2.60;;;;;;;5.53;80.10;99782.00;5030029;28;20076;-42
2022/01/09 08:26:29;;;;;;;20.00;3.10;;;;;;;5.57;79.76;99783.34;5030184;28;20033;-42
2022/01/09 08:28:54;;;;;;;23.52;3.20;;;;;;;5.59;79.88;99789.34;5029942;28;20530;-42
2022/01/09 08:31:20;;;;;;;20.58;2.95;;;;;;;5.56;81.40;99784.34;5030003;28;20419;-42
2022/01/09 08:33:46;;;;;;;20.48;2.58;;;;;;;5.59;81.43;99787.50;5030094;28;20448;-42
2022/01/09 08:36:12;;;;;;;33.72;3.45;;;;;;;5.61;81.23;99788.16;5029852;28;20112;-42
2022/01/09 08:38:37;;;;;;;27.35;3.10;;;;;;;5.57;80.82;99789.50;5029822;28;20086;-43
2022/01/09 08:41:02;;;;;;;31.08;4.43;;;;;;;5.57;81.41;99802.84;5030123;28;20568;-42
2022/01/09 08:43:29;;;;;;;26.63;3.65;;;;;;;5.55;81.67;99807.50;5029754;28;20028;-42
2022/01/09 08:45:54;;;;;;;24.63;3.08;;;;;;;5.55;81.49;99817.38;5029782;28;20071;-43
2022/01/09 08:48:19;;;;;;;28.08;3.42;;;;;;;5.56;82.09;99811.03;5029827;28;20446;-43
2022/01/09 08:50:45;;;;;;;28.98;3.60;;;;;;;5.38;84.50;99827.31;5028022;28;20045;-43
2022/01/09 08:53:10;;;;;;;17.23;2.75;;;;;;;5.31;86.14;99832.47;5029293;28;20030;-43
2022/01/09 08:55:35;;;;;;;27.08;2.67;;;;;;;5.23;86.45;99830.66;5029988;28;20033;-41
2022/01/09 08:58:01;;;;;;;22.33;3.10;;;;;;;5.11;87.03;99821.41;5032240;28;20385;-39
2022/01/09 09:00:26;;;;;;;29.23;3.67;;;;;;;5.06;86.61;99829.91;5030940;28;20037;-42
2022/01/09 09:02:52;;;;;;;25.77;3.03;;;;;;;5.03;87.33;99829.44;5031999;28;20029;-43
2022/01/09 09:05:18;;;;;;;35.72;3.67;;;;;;;5.07;88.09;99825.41;5032000;28;20162;-41
2022/01/09 09:07:44;;;;;;;39.17;3.47;;;;;;;5.14;87.31;99836.22;5031531;28;20166;-48
2022/01/09 09:10:09;;;;;;;25.33;3.67;;;;;;;5.17;87.02;99841.22;5029020;28;20108;-48
2022/01/09 09:12:36;;;;;;;21.98;2.90;;;;;;;5.11;87.33;99841.88;5025584;28;20160;-48
2022/01/09 09:15:03;;;;;;;25.15;3.55;;;;;;;5.09;88.43;99843.91;5031003;28;20536;-47
2022/01/09 09:17:29;;;;;;;31.48;3.95;;;;;;;5.08;90.12;99856.38;5031039;28;20028;-45
2022/01/09 09:19:54;;;;;;;35.47;3.63;;;;;;;5.13;89.29;99855.88;5031128;28;20396;-46
2022/01/09 09:22:20;;;;;;;26.00;2.97;;;;;;;5.09;86.90;99865.25;5030956;28;20036;-47
2022/01/09 09:24:45;;;;;;;27.75;3.67;;;;;;;5.05;88.36;99859.41;5031850;28;20029;-49
2022/01/09 09:27:11;;;;;;;33.10;3.95;;;;;;;5.02;87.82;99873.91;5032956;28;20489;-48
2022/01/09 09:29:36;;;;;;;42.33;4.15;;;;;;;5.05;89.08;99865.59;5028911;28;20040;-45
2022/01/09 09:32:02;;;;;;;23.65;3.83;;;;;;;5.08;89.20;99869.72;5025490;28;20038;-45
2022/01/09 09:34:28;;;;;;;34.70;3.45;;;;;;;5.14;90.11;99882.41;5025684;28;20559;-45
2022/01/09 09:36:54;;;;;;;27.02;3.42;;;;;;;5.22;89.92;99881.53;5027922;28;20064;-45
2022/01/09 09:39:19;;;;;;;30.02;3.75;;;;;;;5.26;89.83;99877.50;5025985;28;20465;-44
2022/01/09 09:41:45;;;;;;;35.28;3.67;;;;;;;5.25;89.38;99890.03;5026342;28;20056;-42
2022/01/09 09:44:12;;;;;;;31.27;5.15;;;;;;;5.26;88.44;99910.34;5027759;28;20366;-43
2022/01/09 09:46:37;;;;;;;40.47;3.88;;;;;;;5.22;87.98;99908.22;5027420;28;20071;-48
2022/01/09 09:49:03;;;;;;;34.25;3.17;;;;;;;5.16;88.99;99908.88;5009711;28;20800;-54
2022/01/09 09:51:30;;;;;;;29.63;3.33;;;;;;;5.19;87.41;99908.56;5027116;28;20033;-49
2022/01/09 09:53:56;;;;;;;26.65;3.33;;;;;;;5.39;88.82;99906.34;5027407;28;20025;-50
2022/01/09 09:56:21;;;;;;;38.78;4.10;;;;;;;5.85;89.26;99904.66;5025768;28;20043;-45
2022/01/09 09:58:49;;;;;;;37.83;3.88;;;;;;;6.50;85.49;99894.59;5026911;28;20026;-46
2022/01/09 10:01:23;;;;;;;26.90;2.63;;;;;;;6.67;82.24;99906.00;5028003;28;20094;-47
2022/01/09 10:04:04;;;;;;;31.00;3.20;;;;;;;6.53;82.49;99913.81;5027375;28;20044;-43
2022/01/09 10:06:43;;;;;;;25.52;3.60;;;;;;;6.49;82.99;99917.00;5023344;28;20102;-42
2022/01/09 10:09:13;;;;;;;28.50;4.00;;;;;;;6.32;82.56;99926.97;5026075;28;20060;-41
2022/01/09 10:11:52;;;;;;;27.33;2.90;;;;;;;6.19;85.51;99922.22;5026306;28;20489;-41
2022/01/09 10:14:30;;;;;;;26.08;3.42;;;;;;;6.11;83.43;99919.59;5030536;28;20452;-43
2022/01/09 10:17:16;;;;;;;27.10;4.90;;;;;;;6.14;83.08;99919.22;5011042;28;20052;-43
2022/01/09 10:19:47;;;;;;;32.63;3.75;;;;;;;6.17;83.91;99924.22;5032178;28;20050;-41
2022/01/09 10:22:36;;;;;;;18.75;2.65;;;;;;;6.21;81.69;99924.69;5032184;28;20048;-42
2022/01/09 10:25:21;;;;;;;29.13;3.00;;;;;;;6.21;80.84;99930.84;5031807;28;20485;-41
2022/01/09 10:27:48;;;;;;;33.47;3.38;;;;;;;6.13;83.12;99933.56;5026613;28;20036;-43
2022/01/09 10:30:14;;;;;;;30.70;3.45;;;;;;;6.06;83.44;99930.78;5031978;28;20018;-44
2022/01/09 10:32:40;;;;;;;37.80;4.00;;;;;;;6.06;83.45;99932.63;5034128;28;20034;-42
2022/01/09 10:35:13;;;;;;;18.92;2.95;;;;;;;6.01;83.41;99935.81;5035154;28;20040;-43
2022/01/09 10:37:40;;;;;;;22.15;3.15;;;;;;;5.94;84.72;99933.00;5034124;28;20067;-43
2022/01/09 10:40:08;;;;;;;40.95;3.83;;;;;;;5.86;83.20;99940.19;5034558;28;20044;-42
2022/01/09 10:42:33;;;;;;;;;;;;;;;5.87;84.13;99945.38;5028140;28;20026;-43
2022/01/09 10:45:19;;;;;;;31.25;3.53;;;;;;;5.99;82.62;99942.34;5015153;28;19921;-42
2022/01/09 10:47:45;;;;;;;33.28;4.30;;;;;;;5.93;83.07;99944.72;5025941;28;20033;-42
2022/01/09 10:50:22;;;;;;;38.20;3.47;;;;;;;6.03;83.99;99944.50;5017740;28;20108;-42
2022/01/09 10:52:47;;;;;;;21.65;3.08;;;;;;;6.08;83.91;99938.63;5030698;28;20025;-42
2022/01/09 10:55:13;;;;;;;25.02;3.45;;;;;;;6.10;84.28;99942.78;5031102;28;20033;-43
2022/01/09 10:57:40;;;;;;;29.35;3.80;;;;;;;6.18;84.03;99946.41;5031608;28;20021;-43
2022/01/09 11:00:11;;;;;;;32.20;3.65;;;;;;;6.21;83.31;99951.41;5031818;28;20041;-43
2022/01/09 11:02:37;;;;;;;23.75;3.58;;;;;;;6.17;81.69;99950.09;5031628;28;20040;-43
2022/01/09 11:05:03;;;;;;;29.13;3.65;;;;;;;6.17;82.53;99950.94;5032257;28;20022;-43
2022/01/09 11:07:29;;;;;;;41.00;4.95;;;;;;;6.19;82.42;99961.44;5033492;28;20037;-43
2022/01/09 11:09:56;;;;;;;31.65;3.42;;;;;;;6.22;81.16;99959.25;5040835;28;20056;-43
2022/01/09 11:12:22;;;;;;;28.25;4.30;;;;;;;6.23;81.15;99974.28;5032809;28;20139;-42
2022/01/09 11:14:49;;;;;;;43.95;6.47;;;;;;;6.17;82.45;99964.28;5030019;28;20180;-43
2022/01/09 11:17:16;;;;;;;27.85;4.15;;;;;;;6.18;81.81;99967.78;5031247;28;20034;-44
2022/01/09 11:19:42;;;;;;;24.60;2.80;;;;;;;6.13;83.01;99979.84;5035133;28;20389;-43
2022/01/09 11:22:10;;;;;;;28.02;2.97;;;;;;;6.06;80.26;99973.53;5030091;28;20029;-43
2022/01/09 11:24:56;;;;;;;30.23;3.38;;;;;;;6.06;82.21;99986.06;5048814;28;20100;-44
2022/01/09 11:27:46;;;;;;;26.80;3.47;;;;;;;6.15;79.88;99985.81;5046702;28;20041;-44
2022/01/09 11:30:36;;;;;;;25.65;3.13;;;;;;;6.18;81.33;99983.81;5014743;28;20033;-42
2022/01/09 11:33:20;;;;;;;33.58;3.38;;;;;;;6.20;80.63;99990.66;5031758;28;20030;-43